Tyngsborough, Massachusetts
Current Conditions -  °F | °C
As of 6:56 AM on Sunday 25 Jan 2015 (Local Time) from KBED Reporting Station
Few Clouds Few Clouds  
Wind Chill: 21°   Ceiling: Unl
Heat Index: 30°   Visibility: 10mi
Dew Point: 26°   Wind: 10mph
Humidity: 85%   Direction: 230°SW
Pressure: 29.48"   Gusts: NA
Location:  42.6592°N, 71.448°W
Report Text: KBED 251156Z AUTO 23009KT 10SM FEW065 M01/M03 A2948 RMK AO2 SLP998 70053 T10111033 11006 21033 53027 TSNO
Loading
Personal Weather Stations






























Interactive Weather Map New forecast layout! Learn more

10-Day Weather Forecast

Advertisements
Track Severe Weather on mobile